Time;durP1;ratioP1;P1;durP2;ratioP2;P2;SDS_P1;SDS_P2;PMS_P1;PMS_P2;Temp;Humidity;BMP_temperature;BMP_pressure;BME280_temperature;BME280_humidity;BME280_pressure;Samples;Min_cycle;Max_cycle;Signal;HPM_P1;HPM_P2
2022/05/24 00:01:13;;;;;;;0.63;0.63;;;14.60;99.90;;;;;;5016428;28;20057;-73
2022/05/24 00:03:38;;;;;;;0.40;0.40;;;14.60;99.90;;;;;;5016302;28;20054;-71
2022/05/24 00:06:04;;;;;;;0.40;0.40;;;14.60;99.90;;;;;;5015846;28;20042;-71
2022/05/24 00:08:30;;;;;;;0.52;0.52;;;14.50;99.90;;;;;;5012822;28;20053;-73
2022/05/24 00:10:56;;;;;;;0.80;0.80;;;14.50;99.90;;;;;;5016284;28;20065;-73
2022/05/24 00:13:22;;;;;;;0.50;0.50;;;14.50;99.90;;;;;;5008177;28;20120;-71
2022/05/24 00:15:47;;;;;;;0.50;0.50;;;14.40;99.90;;;;;;5016499;28;20061;-71
2022/05/24 00:18:20;;;;;;;0.55;0.55;;;14.40;99.90;;;;;;5016128;28;20046;-71
2022/05/24 00:20:48;;;;;;;0.35;0.35;;;14.40;99.90;;;;;;5016424;28;20046;-72
2022/05/24 00:23:15;;;;;;;0.50;0.50;;;14.30;99.90;;;;;;5010994;28;20057;-73
2022/05/24 00:25:44;;;;;;;0.40;0.40;;;14.30;99.90;;;;;;5015822;28;20053;-72
2022/05/24 00:28:12;;;;;;;0.40;0.40;;;14.20;99.90;;;;;;5013348;28;20052;-72
2022/05/24 00:30:38;;;;;;;1.73;0.77;;;14.10;99.90;;;;;;4982338;28;20046;-72
2022/05/24 00:33:04;;;;;;;1.50;0.93;;;14.10;99.90;;;;;;5016067;28;20046;-72
2022/05/24 00:35:30;;;;;;;0.50;0.50;;;13.90;99.90;;;;;;5015849;28;20119;-72
2022/05/24 00:37:56;;;;;;;0.50;0.50;;;13.80;99.90;;;;;;5015206;28;20517;-73
2022/05/24 00:40:46;;;;;;;0.55;0.55;;;13.70;99.90;;;;;;5016246;28;20053;-72
2022/05/24 00:43:23;;;;;;;0.40;0.40;;;13.60;99.90;;;;;;4998809;28;20066;-74
2022/05/24 00:45:54;;;;;;;0.75;0.60;;;13.60;99.90;;;;;;5015897;28;20045;-72
2022/05/24 00:48:27;;;;;;;0.52;0.52;;;13.40;99.90;;;;;;5015467;28;20045;-72
2022/05/24 00:50:53;;;;;;;0.60;0.60;;;13.40;99.90;;;;;;5015422;28;20105;-71
2022/05/24 00:53:30;;;;;;;0.50;0.50;;;13.30;99.90;;;;;;5015252;28;20078;-73
2022/05/24 00:56:02;;;;;;;0.52;0.52;;;13.20;99.90;;;;;;4965303;28;20402;-73
2022/05/24 00:58:30;;;;;;;0.70;0.70;;;13.20;99.90;;;;;;5015476;28;20104;-72
2022/05/24 01:00:59;;;;;;;0.77;0.77;;;13.10;99.90;;;;;;5015313;28;20053;-72
2022/05/24 01:03:25;;;;;;;0.68;0.68;;;13.10;99.90;;;;;;5015534;28;20057;-71
2022/05/24 01:05:50;;;;;;;0.68;0.60;;;13.20;99.90;;;;;;4982036;28;20068;-71
2022/05/24 01:08:16;;;;;;;0.35;0.35;;;13.00;99.90;;;;;;5015178;28;20351;-73
2022/05/24 01:10:50;;;;;;;0.50;0.50;;;13.00;99.90;;;;;;4997811;28;20050;-73
2022/05/24 01:13:20;;;;;;;0.73;0.73;;;13.00;99.90;;;;;;5015142;28;20041;-73
2022/05/24 01:15:47;;;;;;;0.40;0.40;;;12.90;99.90;;;;;;5015444;28;20414;-73
2022/05/24 01:18:14;;;;;;;0.45;0.45;;;12.90;99.90;;;;;;5015693;28;20092;-72
2022/05/24 01:20:42;;;;;;;0.57;0.57;;;12.90;99.90;;;;;;5015161;28;20045;-72
2022/05/24 01:23:19;;;;;;;0.75;0.70;;;12.80;99.90;;;;;;5014850;28;20057;-72
2022/05/24 01:26:02;;;;;;;0.50;0.50;;;12.70;99.90;;;;;;4997438;28;20470;-73
2022/05/24 01:28:42;;;;;;;0.40;0.40;;;12.70;99.90;;;;;;4997962;28;20046;-74
2022/05/24 01:31:09;;;;;;;0.40;0.40;;;12.70;99.90;;;;;;5015314;28;20049;-73
2022/05/24 01:36:21;;;;;;;0.50;0.50;;;12.60;99.90;;;;;;5014870;28;20144;-72
2022/05/24 01:38:51;;;;;;;0.50;0.50;;;12.50;99.90;;;;;;5014413;28;20073;-72
2022/05/24 01:41:23;;;;;;;0.60;0.60;;;12.50;99.90;;;;;;4997698;28;20072;-72
2022/05/24 01:43:51;;;;;;;0.50;0.50;;;12.50;99.90;;;;;;5015336;28;20057;-72
2022/05/24 01:46:21;;;;;;;3.95;2.28;;;12.40;99.90;;;;;;5015111;28;20046;-73
2022/05/24 01:48:52;;;;;;;0.90;0.82;;;12.40;99.90;;;;;;5014524;28;20045;-73
2022/05/24 01:51:21;;;;;;;1.20;0.70;;;12.40;99.90;;;;;;5015179;28;20050;-72
2022/05/24 01:53:50;;;;;;;0.40;0.40;;;12.40;99.90;;;;;;5014632;28;20050;-73
2022/05/24 01:56:20;;;;;;;0.50;0.50;;;12.40;99.90;;;;;;5013362;28;20042;-71
2022/05/24 01:58:50;;;;;;;0.75;0.75;;;12.50;99.90;;;;;;5014509;28;20064;-74
2022/05/24 02:01:40;;;;;;;0.60;0.60;;;12.40;99.90;;;;;;5014508;28;20042;-73
2022/05/24 02:04:06;;;;;;;0.43;0.43;;;12.40;99.90;;;;;;5014940;28;20100;-74
2022/05/24 02:06:33;;;;;;;0.60;0.60;;;12.40;99.90;;;;;;4997648;28;20052;-73
2022/05/24 02:08:58;;;;;;;0.98;0.90;;;12.50;99.90;;;;;;5014560;28;20029;-72
2022/05/24 02:11:29;;;;;;;0.40;0.40;;;12.50;99.90;;;;;;4997173;28;20046;-72
2022/05/24 02:14:18;;;;;;;0.50;0.50;;;12.60;99.90;;;;;;4980160;28;20136;-72
2022/05/24 02:17:03;;;;;;;0.40;0.40;;;12.60;99.90;;;;;;4997959;28;20061;-72
2022/05/24 02:19:33;;;;;;;0.55;0.50;;;12.60;99.90;;;;;;5014791;28;20042;-72
2022/05/24 02:22:06;;;;;;;1.95;0.77;;;12.60;99.90;;;;;;5014399;28;20038;-72
2022/05/24 02:24:32;;;;;;;0.35;0.35;;;12.70;99.90;;;;;;5014364;28;20104;-71
2022/05/24 02:26:58;;;;;;;0.40;0.40;;;12.70;99.90;;;;;;4997541;28;20042;-72
2022/05/24 02:29:23;;;;;;;0.40;0.40;;;12.80;99.90;;;;;;5014890;28;20082;-72
2022/05/24 02:31:50;;;;;;;0.70;0.70;;;12.80;99.90;;;;;;4997246;28;20179;-72
2022/05/24 02:34:16;;;;;;;0.65;0.65;;;12.80;99.90;;;;;;5018297;28;20104;-72
2022/05/24 02:36:41;;;;;;;0.40;0.40;;;12.80;99.90;;;;;;5018037;28;20054;-73
2022/05/24 02:39:08;;;;;;;0.40;0.40;;;12.80;99.90;;;;;;5017794;28;20065;-73
2022/05/24 02:41:36;;;;;;;0.50;0.50;;;12.90;99.90;;;;;;5017791;28;20070;-72
2022/05/24 02:44:07;;;;;;;1.55;1.33;;;12.90;99.90;;;;;;5000739;28;20045;-73
2022/05/24 02:46:35;;;;;;;0.55;0.55;;;13.00;99.90;;;;;;5000875;28;20485;-73
2022/05/24 02:49:01;;;;;;;1.02;0.82;;;13.00;99.90;;;;;;5000500;28;20056;-71
2022/05/24 02:51:27;;;;;;;0.60;0.60;;;13.00;99.90;;;;;;5000493;28;20391;-72
2022/05/24 02:53:54;;;;;;;1.75;0.60;;;13.10;99.90;;;;;;5018066;28;20129;-72
2022/05/24 02:56:19;;;;;;;0.50;0.50;;;13.10;99.90;;;;;;5000417;28;20054;-72
2022/05/24 02:58:46;;;;;;;1.40;0.75;;;13.10;99.90;;;;;;5017685;28;20049;-72
2022/05/24 03:01:18;;;;;;;1.42;0.88;;;13.10;99.90;;;;;;5017678;28;20081;-72
2022/05/24 03:03:45;;;;;;;1.30;1.17;;;13.20;99.90;;;;;;5017654;28;20374;-72
2022/05/24 03:06:11;;;;;;;0.60;0.60;;;13.20;99.90;;;;;;5000628;28;20382;-73
2022/05/24 03:11:22;;;;;;;1.05;0.93;;;13.30;99.90;;;;;;5000209;28;20057;-73
2022/05/24 03:16:31;;;;;;;0.82;0.77;;;13.30;99.90;;;;;;5017689;28;20054;-72
2022/05/24 03:18:57;;;;;;;1.40;1.27;;;13.30;99.90;;;;;;5017423;28;20129;-72
2022/05/24 03:21:23;;;;;;;1.02;0.77;;;13.40;99.90;;;;;;5017545;28;20045;-72
2022/05/24 03:23:48;;;;;;;0.95;0.85;;;13.40;99.90;;;;;;5016961;28;20069;-73
2022/05/24 03:26:14;;;;;;;2.75;1.05;;;13.40;99.90;;;;;;5016964;28;20053;-72
2022/05/24 03:28:41;;;;;;;2.80;1.30;;;13.40;99.90;;;;;;5017028;28;20077;-73
2022/05/24 03:31:08;;;;;;;2.28;1.50;;;13.40;99.90;;;;;;5016853;28;20057;-72
2022/05/24 03:33:34;;;;;;;2.58;1.05;;;13.40;99.90;;;;;;5016954;28;20053;-72
2022/05/24 03:36:00;;;;;;;3.63;1.27;;;13.40;99.90;;;;;;5017049;28;20045;-72
2022/05/24 03:38:28;;;;;;;3.30;1.58;;;13.50;99.90;;;;;;5016194;28;20055;-72
2022/05/24 03:40:54;;;;;;;1.25;1.15;;;13.40;99.90;;;;;;5017104;28;20373;-71
2022/05/24 03:43:20;;;;;;;1.42;1.33;;;13.50;99.90;;;;;;5017021;28;20125;-73
2022/05/24 03:45:46;;;;;;;0.85;0.85;;;13.50;99.90;;;;;;5015818;28;20152;-73
2022/05/24 03:48:12;;;;;;;1.65;1.20;;;13.60;99.90;;;;;;5017117;28;20052;-72
2022/05/24 03:50:37;;;;;;;1.45;1.30;;;13.60;99.90;;;;;;5016569;28;20041;-72
2022/05/24 03:53:03;;;;;;;2.72;1.38;;;13.60;99.90;;;;;;5016399;28;20046;-72
2022/05/24 03:55:29;;;;;;;0.63;0.63;;;13.60;99.90;;;;;;5016233;28;20049;-72
2022/05/24 03:58:01;;;;;;;5.40;1.10;;;13.60;99.90;;;;;;5017007;28;20049;-71
2022/05/24 04:00:36;;;;;;;0.88;0.73;;;13.70;99.90;;;;;;5016574;28;20104;-72
2022/05/24 04:03:03;;;;;;;2.53;2.17;;;13.70;99.90;;;;;;5017079;28;20041;-72
2022/05/24 04:05:29;;;;;;;1.10;1.00;;;13.70;99.90;;;;;;5015946;28;20116;-71
2022/05/24 04:07:55;;;;;;;2.97;1.77;;;13.80;99.90;;;;;;5016320;28;20041;-72
2022/05/24 04:10:21;;;;;;;1.83;0.85;;;13.80;99.90;;;;;;5015905;28;20042;-72
2022/05/24 04:12:47;;;;;;;0.82;0.77;;;13.80;99.90;;;;;;5016193;28;20446;-71
2022/05/24 04:15:13;;;;;;;2.05;0.95;;;13.90;99.90;;;;;;5016307;28;20050;-72
2022/05/24 04:17:39;;;;;;;1.85;1.30;;;13.90;99.90;;;;;;5015996;28;20112;-72
2022/05/24 04:20:06;;;;;;;1.40;1.30;;;13.90;99.90;;;;;;5016311;28;20049;-71
2022/05/24 04:22:32;;;;;;;2.15;1.77;;;13.90;99.90;;;;;;5016211;28;20081;-74
2022/05/24 04:24:58;;;;;;;1.35;1.25;;;13.90;99.90;;;;;;5015583;28;20052;-72
2022/05/24 04:27:24;;;;;;;1.00;0.88;;;14.00;99.90;;;;;;5015932;28;20124;-73
2022/05/24 04:29:52;;;;;;;0.60;0.60;;;14.00;99.90;;;;;;5015877;28;20061;-72
2022/05/24 04:32:17;;;;;;;1.23;1.10;;;14.00;99.90;;;;;;5015345;28;20477;-72
2022/05/24 04:34:43;;;;;;;0.50;0.50;;;14.10;99.90;;;;;;4998554;28;20053;-72
2022/05/24 04:37:09;;;;;;;1.02;0.90;;;14.10;99.90;;;;;;5015849;28;20045;-72
2022/05/24 04:39:35;;;;;;;2.20;1.35;;;14.10;99.90;;;;;;4982163;28;20053;-72
2022/05/24 04:42:19;;;;;;;1.25;1.08;;;14.10;99.90;;;;;;5012548;28;20346;-72
2022/05/24 04:44:46;;;;;;;1.10;1.00;;;14.20;99.90;;;;;;5015706;28;20049;-72
2022/05/24 04:47:13;;;;;;;1.10;0.93;;;14.30;99.90;;;;;;5014544;28;20133;-72
2022/05/24 04:49:46;;;;;;;0.65;0.65;;;14.20;99.90;;;;;;5015418;28;20056;-72
2022/05/24 04:52:13;;;;;;;0.88;0.80;;;14.30;99.90;;;;;;5015830;28;20067;-74
2022/05/24 04:54:39;;;;;;;0.65;0.65;;;14.30;99.90;;;;;;5015202;28;20470;-70
2022/05/24 04:57:06;;;;;;;0.98;0.90;;;14.40;99.90;;;;;;5014872;28;20050;-71
2022/05/24 04:59:32;;;;;;;1.23;1.13;;;14.40;99.90;;;;;;5015323;28;20457;-71
2022/05/24 05:01:57;;;;;;;0.68;0.68;;;14.40;99.90;;;;;;4998154;28;20056;-73
2022/05/24 05:04:24;;;;;;;1.17;1.02;;;14.50;99.90;;;;;;4998240;28;20128;-72
2022/05/24 05:06:50;;;;;;;1.13;1.00;;;14.50;99.90;;;;;;4997934;28;20078;-73
2022/05/24 05:09:16;;;;;;;0.80;0.80;;;14.50;99.90;;;;;;5015173;28;20045;-72
2022/05/24 05:11:42;;;;;;;0.80;0.80;;;14.50;99.90;;;;;;5015042;28;20446;-71
2022/05/24 05:14:09;;;;;;;1.45;0.98;;;14.50;99.90;;;;;;5015104;28;20050;-72
2022/05/24 05:16:38;;;;;;;0.50;0.50;;;14.50;99.90;;;;;;5015108;28;20092;-73
2022/05/24 05:19:09;;;;;;;0.82;0.82;;;14.50;99.90;;;;;;5015183;28;20041;-72
2022/05/24 05:21:37;;;;;;;0.95;0.93;;;14.50;99.90;;;;;;4997810;28;20057;-73
2022/05/24 05:24:05;;;;;;;0.75;0.75;;;14.60;99.90;;;;;;5014762;28;20054;-73
2022/05/24 05:26:31;;;;;;;0.98;0.90;;;14.60;99.90;;;;;;5015295;28;20081;-72
2022/05/24 05:28:57;;;;;;;1.00;1.00;;;14.60;99.90;;;;;;5014021;28;20052;-71
2022/05/24 05:31:25;;;;;;;3.97;2.65;;;14.60;99.90;;;;;;5011721;28;20043;-72
2022/05/24 05:33:51;;;;;;;1.88;0.95;;;14.60;99.90;;;;;;5013787;28;20085;-70
2022/05/24 05:36:18;;;;;;;3.22;2.75;;;14.60;99.90;;;;;;5002290;28;20057;-71
2022/05/24 05:38:47;;;;;;;3.28;2.95;;;14.60;99.90;;;;;;5000416;28;20062;-70
2022/05/24 05:41:29;;;;;;;0.82;0.82;;;14.60;99.90;;;;;;5001506;28;20050;-70
2022/05/24 05:43:56;;;;;;;1.00;0.90;;;14.60;99.90;;;;;;5014739;28;20038;-72
2022/05/24 05:46:21;;;;;;;0.60;0.60;;;14.60;99.90;;;;;;4981209;28;20046;-69
2022/05/24 05:48:47;;;;;;;0.95;0.88;;;14.70;99.90;;;;;;5002983;28;20339;-70
2022/05/24 05:51:15;;;;;;;1.45;1.13;;;14.70;99.90;;;;;;5016068;28;20084;-72
2022/05/24 05:53:42;;;;;;;1.50;1.13;;;14.70;99.90;;;;;;5013681;28;20041;-73
2022/05/24 05:56:17;;;;;;;1.30;0.98;;;14.60;99.90;;;;;;5014123;28;20057;-72
2022/05/24 05:58:43;;;;;;;1.42;1.30;;;14.70;99.90;;;;;;5014001;28;20050;-72
2022/05/24 06:01:14;;;;;;;1.48;1.23;;;14.70;99.90;;;;;;5017894;28;20133;-71
2022/05/24 06:03:40;;;;;;;1.17;1.08;;;14.80;99.90;;;;;;5014487;28;20137;-72
2022/05/24 06:06:06;;;;;;;1.02;0.93;;;14.80;99.90;;;;;;5014218;28;20124;-72
2022/05/24 06:08:31;;;;;;;1.30;1.20;;;14.80;99.90;;;;;;5017193;28;20089;-71
2022/05/24 06:10:57;;;;;;;1.10;0.98;;;14.90;99.90;;;;;;5018325;28;20042;-70
2022/05/24 06:13:22;;;;;;;1.40;1.30;;;14.90;99.90;;;;;;5005874;28;20092;-71
2022/05/24 06:15:50;;;;;;;0.93;0.93;;;15.10;99.90;;;;;;5017947;28;20085;-70
2022/05/24 06:18:15;;;;;;;0.95;0.80;;;15.30;99.90;;;;;;5018308;28;20445;-71
2022/05/24 06:20:41;;;;;;;0.75;0.70;;;15.40;99.90;;;;;;5018152;28;20129;-72
2022/05/24 06:23:07;;;;;;;0.60;0.60;;;15.40;99.90;;;;;;5017692;28;20069;-71
2022/05/24 06:25:32;;;;;;;1.00;0.93;;;15.50;99.90;;;;;;5017790;28;20480;-74
2022/05/24 06:27:58;;;;;;;3.40;1.27;;;15.40;99.90;;;;;;5016369;28;20048;-72
2022/05/24 06:30:24;;;;;;;2.65;1.05;;;15.50;99.90;;;;;;5017793;28;20134;-71
2022/05/24 06:32:51;;;;;;;2.63;1.30;;;15.60;99.90;;;;;;5011057;28;20086;-71
2022/05/24 06:35:18;;;;;;;0.50;0.50;;;15.70;99.90;;;;;;5000292;28;20046;-71
2022/05/24 06:37:44;;;;;;;0.63;0.63;;;15.70;99.90;;;;;;4999876;28;20073;-72
2022/05/24 06:40:16;;;;;;;0.90;0.70;;;15.70;99.90;;;;;;5017457;28;20049;-72
2022/05/24 06:42:42;;;;;;;0.97;0.67;;;15.70;99.90;;;;;;5018761;28;20343;-72
2022/05/24 06:45:11;;;;;;;0.98;0.80;;;15.70;99.90;;;;;;5018128;28;20292;-73
2022/05/24 06:47:38;;;;;;;0.82;0.73;;;15.70;99.90;;;;;;5020334;28;20053;-71
2022/05/24 06:50:04;;;;;;;3.60;1.30;;;15.80;99.90;;;;;;5000808;28;20489;-72
2022/05/24 06:52:30;;;;;;;1.38;0.82;;;15.80;99.90;;;;;;5017713;28;20049;-72
2022/05/24 06:54:56;;;;;;;2.15;1.55;;;15.60;99.90;;;;;;5017432;28;20108;-72
2022/05/24 06:57:22;;;;;;;0.93;0.80;;;15.50;99.90;;;;;;5017032;28;20060;-73
2022/05/24 07:02:33;;;;;;;0.77;0.77;;;15.50;99.90;;;;;;5017262;28;20450;-72
2022/05/24 07:05:03;;;;;;;1.48;1.00;;;15.60;99.90;;;;;;5017303;28;20050;-71
2022/05/24 07:07:30;;;;;;;0.75;0.75;;;15.70;99.90;;;;;;4999665;28;20045;-72
2022/05/24 07:09:56;;;;;;;2.08;1.52;;;15.80;99.90;;;;;;5017091;28;20059;-72
2022/05/24 07:12:23;;;;;;;2.15;1.23;;;15.80;99.90;;;;;;4999647;28;20121;-72
2022/05/24 07:14:48;;;;;;;1.38;0.95;;;15.70;99.90;;;;;;5017051;28;20042;-73
2022/05/24 07:17:16;;;;;;;1.60;1.13;;;15.70;99.90;;;;;;5001608;28;20054;-72
2022/05/24 07:19:41;;;;;;;0.43;0.43;;;15.50;99.90;;;;;;5018888;28;20030;-73
2022/05/24 07:22:07;;;;;;;9.27;0.85;;;15.60;99.90;;;;;;5016582;28;20116;-73
2022/05/24 07:24:33;;;;;;;2.22;0.85;;;15.60;99.90;;;;;;5022212;28;20057;-73
2022/05/24 07:26:59;;;;;;;3.97;0.93;;;15.60;99.90;;;;;;5017238;28;20038;-72
2022/05/24 07:29:25;;;;;;;1.10;0.95;;;15.70;99.90;;;;;;5016620;28;20457;-71
2022/05/24 07:31:51;;;;;;;3.30;1.08;;;15.60;99.90;;;;;;5018187;28;20131;-71
2022/05/24 07:34:18;;;;;;;1.05;0.60;;;15.40;99.90;;;;;;5017077;28;20058;-72
2022/05/24 07:36:44;;;;;;;4.38;1.23;;;15.40;99.90;;;;;;5015517;28;20076;-73
2022/05/24 07:39:09;;;;;;;1.27;1.13;;;15.40;99.90;;;;;;5012181;28;20073;-72
2022/05/24 07:47:06;;;;;;;1.02;0.98;;;15.40;99.90;;;;;;5016865;28;20404;-71
2022/05/24 07:49:33;;;;;;;0.50;0.50;;;15.30;99.90;;;;;;5015832;28;20050;-73
2022/05/24 07:51:59;;;;;;;0.57;0.57;;;15.30;99.90;;;;;;5016126;28;20056;-73
2022/05/24 07:54:24;;;;;;;0.70;0.60;;;15.30;99.90;;;;;;5016814;28;20041;-73
2022/05/24 07:56:50;;;;;;;0.50;0.50;;;15.20;99.90;;;;;;5007633;28;20041;-72
2022/05/24 07:59:15;;;;;;;0.65;0.65;;;15.40;99.90;;;;;;5016432;28;20054;-74
2022/05/24 08:01:41;;;;;;;0.50;0.50;;;15.40;99.90;;;;;;5017152;28;20060;-73
2022/05/24 08:04:07;;;;;;;0.68;0.60;;;15.50;99.90;;;;;;5011897;28;20060;-72
2022/05/24 08:06:32;;;;;;;0.75;0.65;;;15.60;99.90;;;;;;5015634;28;20042;-72
2022/05/24 08:08:58;;;;;;;1.05;0.80;;;15.60;99.90;;;;;;5015615;28;20049;-71
2022/05/24 08:11:23;;;;;;;0.63;0.63;;;15.60;99.90;;;;;;5015994;28;20084;-73
2022/05/24 08:13:49;;;;;;;0.75;0.70;;;15.70;99.90;;;;;;5016115;28;20061;-73
2022/05/24 08:16:15;;;;;;;1.08;0.82;;;15.80;99.90;;;;;;4999317;28;20443;-71
2022/05/24 08:18:40;;;;;;;0.60;0.60;;;15.80;99.90;;;;;;5012737;28;20045;-69
2022/05/24 08:21:06;;;;;;;0.40;0.40;;;16.00;99.90;;;;;;5015940;28;20048;-71
2022/05/24 08:23:33;;;;;;;0.73;0.70;;;16.00;99.90;;;;;;5001002;28;20049;-71
2022/05/24 08:25:59;;;;;;;1.20;0.68;;;16.00;99.90;;;;;;4981897;28;20427;-70
2022/05/24 08:28:25;;;;;;;0.60;0.60;;;16.20;99.90;;;;;;5015992;28;20129;-72
2022/05/24 08:30:53;;;;;;;0.93;0.70;;;16.40;99.90;;;;;;5015550;28;20381;-70
2022/05/24 08:33:21;;;;;;;0.88;0.88;;;16.60;99.90;;;;;;5015209;28;20382;-70
2022/05/24 08:35:47;;;;;;;0.60;0.60;;;16.60;99.90;;;;;;5013497;28;20037;-72
2022/05/24 08:38:13;;;;;;;1.95;0.98;;;16.60;99.90;;;;;;5015253;28;20462;-72
2022/05/24 08:40:41;;;;;;;1.05;0.80;;;16.80;99.90;;;;;;5016103;28;20112;-72
2022/05/24 08:43:18;;;;;;;0.82;0.75;;;17.50;99.90;;;;;;5010575;28;20382;-74
2022/05/24 08:49:00;;;;;;;0.70;0.70;;;18.90;99.90;;;;;;5015651;28;20054;-73
2022/05/24 08:51:31;;;;;;;0.73;0.70;;;19.80;99.90;;;;;;5015661;28;20056;-73
2022/05/24 08:54:08;;;;;;;1.13;1.02;;;20.70;99.90;;;;;;4997679;28;20393;-73
2022/05/24 08:56:52;;;;;;;0.60;0.60;;;20.40;99.90;;;;;;5015476;28;20046;-72
2022/05/24 08:59:35;;;;;;;1.15;1.05;;;20.00;99.90;;;;;;4998806;28;20046;-73
2022/05/24 09:02:01;;;;;;;;;;;19.70;99.90;;;;;;4998867;28;20045;-74
2022/05/24 09:04:29;;;;;;;3.72;0.68;;;19.80;99.90;;;;;;4998060;28;19929;-73
2022/05/24 09:06:58;;;;;;;1.20;1.10;;;19.70;99.90;;;;;;5008359;28;20533;-73
2022/05/24 09:09:39;;;;;;;0.52;0.52;;;19.30;99.90;;;;;;5015617;28;20056;-73
2022/05/24 09:12:13;;;;;;;3.95;1.27;;;18.80;99.90;;;;;;5015329;28;20132;-72
2022/05/24 09:14:53;;;;;;;0.50;0.50;;;18.20;99.90;;;;;;5015404;28;20038;-74
2022/05/24 09:17:43;;;;;;;6.18;0.82;;;17.90;99.90;;;;;;5131242;23;20069;-74
2022/05/24 09:20:26;;;;;;;0.32;0.32;;;17.80;99.90;;;;;;4995490;28;20095;-73
2022/05/24 09:23:00;;;;;;;1.35;1.05;;;18.00;99.90;;;;;;4995682;28;20057;-73
2022/05/24 09:25:26;;;;;;;0.85;0.52;;;17.90;99.90;;;;;;4994848;28;20054;-74
2022/05/24 09:27:54;;;;;;;0.45;0.30;;;17.60;99.90;;;;;;4995402;28;20053;-73
2022/05/24 09:30:24;;;;;;;0.50;0.50;;;17.60;99.90;;;;;;4995298;28;20491;-74
2022/05/24 09:32:50;;;;;;;1.70;0.63;;;18.00;99.90;;;;;;4995313;28;20336;-73
2022/05/24 09:35:16;;;;;;;1.67;1.00;;;18.30;99.90;;;;;;4998102;28;20061;-73
2022/05/24 09:37:43;;;;;;;0.47;0.40;;;18.20;99.90;;;;;;4997569;28;20046;-74
2022/05/24 09:40:22;;;;;;;0.28;0.28;;;17.90;99.90;;;;;;5015111;28;20104;-74
2022/05/24 09:42:48;;;;;;;0.20;0.20;;;17.30;99.90;;;;;;5016177;28;20476;-74
2022/05/24 09:45:36;;;;;;;0.20;0.20;;;16.90;99.90;;;;;;5001818;28;20077;-73
2022/05/24 09:48:02;;;;;;;0.20;0.20;;;16.30;99.90;;;;;;5001114;28;20054;-74
2022/05/24 09:50:33;;;;;;;0.20;0.20;;;15.90;99.90;;;;;;5014974;28;20042;-72
2022/05/24 09:53:16;;;;;;;0.40;0.40;;;15.60;99.90;;;;;;5018761;28;20050;-73
2022/05/24 09:55:52;;;;;;;0.30;0.30;;;15.40;99.90;;;;;;5001990;28;20041;-72
2022/05/24 09:58:22;;;;;;;0.20;0.20;;;15.30;99.90;;;;;;5001501;28;20052;-72
2022/05/24 10:01:10;;;;;;;0.20;0.20;;;15.10;99.90;;;;;;5018277;28;20085;-72
2022/05/24 10:03:38;;;;;;;0.30;0.30;;;15.10;99.90;;;;;;5018062;28;20038;-72
2022/05/24 10:06:25;;;;;;;0.30;0.30;;;15.10;99.90;;;;;;5018689;28;20048;-72
2022/05/24 10:09:03;;;;;;;0.50;0.50;;;15.30;99.90;;;;;;5018895;28;20332;-72
2022/05/24 10:11:47;;;;;;;0.73;0.40;;;15.40;99.90;;;;;;5001213;28;20056;-73
2022/05/24 10:14:22;;;;;;;0.32;0.32;;;15.70;99.90;;;;;;5018688;28;20037;-73
2022/05/24 10:17:09;;;;;;;0.30;0.30;;;15.90;99.90;;;;;;5017706;28;20046;-72
2022/05/24 10:20:02;;;;;;;0.30;0.30;;;16.10;99.90;;;;;;5018509;28;20044;-74
2022/05/24 10:22:48;;;;;;;0.40;0.40;;;16.30;99.90;;;;;;5018122;28;20057;-71
2022/05/24 10:25:29;;;;;;;0.40;0.40;;;16.90;99.90;;;;;;5018381;28;20049;-73
2022/05/24 10:28:14;;;;;;;0.50;0.50;;;17.80;99.90;;;;;;5018219;28;20121;-72
2022/05/24 10:31:02;;;;;;;0.30;0.30;;;18.00;99.90;;;;;;5018066;28;20049;-72
2022/05/24 10:40:02;;;;;;;0.30;0.30;;;17.60;99.90;;;;;;5017941;28;19925;-74
2022/05/24 10:42:38;;;;;;;0.40;0.40;;;16.30;99.90;;;;;;5011083;28;20046;-72
2022/05/24 10:45:06;;;;;;;0.45;0.45;;;15.50;99.90;;;;;;5018365;28;20100;-72
2022/05/24 10:47:50;;;;;;;0.30;0.30;;;14.90;99.90;;;;;;5011491;28;20069;-72
2022/05/24 10:50:18;;;;;;;0.30;0.30;;;14.50;99.90;;;;;;5000393;28;20128;-73
2022/05/24 10:52:54;;;;;;;0.35;0.35;;;14.30;99.90;;;;;;5000519;28;20049;-72
2022/05/24 10:55:23;;;;;;;0.40;0.40;;;14.00;99.90;;;;;;5017704;28;20076;-72
2022/05/24 10:58:01;;;;;;;0.30;0.30;;;14.00;99.90;;;;;;5017761;28;20042;-72
2022/05/24 11:00:36;;;;;;;0.30;0.30;;;13.90;99.90;;;;;;5017673;28;20057;-72
2022/05/24 11:03:14;;;;;;;0.30;0.30;;;13.90;99.90;;;;;;5000209;28;20046;-72
2022/05/24 11:06:05;;;;;;;0.30;0.30;;;14.10;99.90;;;;;;5017460;28;20038;-72
2022/05/24 11:08:53;;;;;;;0.30;0.30;;;14.50;99.90;;;;;;5017791;28;20048;-72
2022/05/24 11:11:30;;;;;;;0.40;0.40;;;14.90;99.90;;;;;;5017343;28;20508;-73
2022/05/24 11:14:26;;;;;;;0.30;0.30;;;15.30;99.90;;;;;;5000025;28;20056;-72
2022/05/24 11:16:53;;;;;;;0.30;0.30;;;15.70;99.90;;;;;;5016718;28;20423;-71
2022/05/24 11:19:39;;;;;;;0.20;0.20;;;15.90;99.90;;;;;;5016935;28;20085;-73
2022/05/24 11:22:22;;;;;;;0.30;0.30;;;16.20;99.90;;;;;;5017282;28;20366;-74
2022/05/24 11:25:07;;;;;;;0.30;0.30;;;16.40;99.90;;;;;;5017203;28;20054;-72
2022/05/24 11:27:46;;;;;;;0.30;0.30;;;16.30;99.90;;;;;;4999316;28;20042;-72
2022/05/24 11:30:14;;;;;;;0.30;0.30;;;16.30;99.90;;;;;;5017301;28;20045;-72
2022/05/24 11:32:52;;;;;;;0.30;0.30;;;16.40;99.90;;;;;;5016539;28;20180;-72
2022/05/24 11:35:18;;;;;;;0.35;0.35;;;16.50;99.90;;;;;;5016862;28;20404;-73
2022/05/24 11:37:44;;;;;;;0.30;0.30;;;16.60;99.90;;;;;;5017030;28;20033;-72
2022/05/24 11:40:30;;;;;;;0.30;0.30;;;16.60;99.90;;;;;;5016842;28;20442;-72
2022/05/24 11:42:57;;;;;;;0.35;0.35;;;16.60;99.90;;;;;;5016860;28;20054;-71
2022/05/24 11:45:29;;;;;;;0.40;0.40;;;16.70;99.90;;;;;;4999121;28;20041;-71
2022/05/24 11:47:54;;;;;;;0.75;0.50;;;16.90;99.90;;;;;;5013817;28;20358;-72
2022/05/24 11:50:40;;;;;;;0.40;0.40;;;17.30;99.90;;;;;;5016825;28;20046;-73
2022/05/24 11:53:33;;;;;;;0.20;0.20;;;17.70;99.90;;;;;;5016591;28;20116;-73
2022/05/24 11:56:01;;;;;;;1.23;1.17;;;18.00;99.90;;;;;;5016609;28;20057;-72
2022/05/24 11:58:30;;;;;;;0.50;0.50;;;18.10;99.90;;;;;;4999129;28;20093;-73
2022/05/24 12:01:04;;;;;;;0.20;0.20;;;18.10;99.90;;;;;;5016168;28;20041;-73
2022/05/24 12:09:13;;;;;;;0.38;0.38;;;17.70;99.90;;;;;;5016445;28;20100;-72
2022/05/24 12:11:39;;;;;;;0.22;0.22;;;17.60;99.90;;;;;;5016352;28;20363;-73
2022/05/24 12:14:19;;;;;;;0.32;0.32;;;17.50;99.90;;;;;;4998963;28;20042;-72
2022/05/24 12:17:09;;;;;;;1.10;0.40;;;17.10;99.90;;;;;;5010264;28;20108;-73
2022/05/24 12:19:37;;;;;;;0.20;0.20;;;16.90;99.90;;;;;;5009008;28;20443;-73
2022/05/24 12:22:10;;;;;;;0.80;0.80;;;17.10;99.90;;;;;;4998958;28;20458;-73
2022/05/24 12:24:36;;;;;;;0.20;0.20;;;17.40;99.90;;;;;;5016239;28;20069;-74
2022/05/24 12:27:21;;;;;;;0.43;0.43;;;17.50;99.90;;;;;;5016044;28;20362;-73
2022/05/24 12:30:00;;;;;;;0.30;0.30;;;17.90;99.90;;;;;;4998500;28;20055;-72
2022/05/24 12:32:31;;;;;;;0.20;0.20;;;18.20;99.90;;;;;;5015881;28;20053;-74
2022/05/24 12:35:11;;;;;;;0.20;0.20;;;18.20;99.90;;;;;;5016079;28;20056;-73
2022/05/24 12:37:44;;;;;;;0.20;0.20;;;18.30;99.90;;;;;;5016394;28;20054;-73
2022/05/24 12:40:18;;;;;;;0.40;0.40;;;18.20;99.90;;;;;;5015844;28;20081;-72
2022/05/24 12:42:52;;;;;;;0.32;0.32;;;18.20;99.90;;;;;;5016187;28;20046;-74
2022/05/24 12:45:45;;;;;;;3.53;0.65;;;18.20;99.90;;;;;;5014110;28;20050;-73
2022/05/24 12:48:34;;;;;;;0.22;0.22;;;17.70;99.90;;;;;;4979462;28;20129;-73
2022/05/24 12:51:01;;;;;;;1.75;1.10;;;17.10;99.90;;;;;;5015585;28;20048;-71
2022/05/24 12:53:27;;;;;;;0.30;0.30;;;16.50;99.90;;;;;;5015573;28;20097;-73
2022/05/24 12:56:08;;;;;;;0.30;0.30;;;15.90;99.90;;;;;;5015514;28;20042;-71
2022/05/24 12:58:40;;;;;;;0.30;0.30;;;15.80;99.90;;;;;;5015882;28;20085;-73
2022/05/24 13:01:15;;;;;;;0.30;0.30;;;16.00;99.90;;;;;;5015099;28;20060;-73
2022/05/24 13:03:51;;;;;;;0.20;0.20;;;16.30;99.90;;;;;;4997635;28;20109;-73
2022/05/24 13:06:22;;;;;;;0.20;0.20;;;16.60;99.90;;;;;;5015300;28;20370;-75
2022/05/24 13:09:24;;;;;;;0.50;0.50;;;16.90;99.90;;;;;;4997001;28;20046;-72
2022/05/24 13:12:04;;;;;;;0.50;0.50;;;17.20;99.90;;;;;;5015269;28;20080;-72
2022/05/24 13:14:42;;;;;;;0.25;0.25;;;17.70;99.90;;;;;;5015299;28;20103;-72
2022/05/24 13:17:09;;;;;;;0.20;0.20;;;17.80;99.90;;;;;;5014078;28;20053;-72
2022/05/24 13:19:55;;;;;;;0.35;0.35;;;18.10;99.90;;;;;;5015261;28;20185;-72
2022/05/24 13:22:24;;;;;;;0.77;0.77;;;18.50;99.90;;;;;;5015245;28;20041;-73
2022/05/24 13:25:00;;;;;;;0.20;0.20;;;18.70;99.90;;;;;;5012868;28;20061;-73
2022/05/24 13:27:46;;;;;;;0.20;0.20;;;18.80;99.90;;;;;;5015205;28;20053;-72
2022/05/24 13:35:47;;;;;;;0.30;0.30;;;18.10;99.90;;;;;;5015364;28;20077;-73
2022/05/24 13:38:13;;;;;;;0.28;0.28;;;17.60;99.90;;;;;;5014966;28;20081;-73
2022/05/24 13:40:52;;;;;;;0.20;0.20;;;17.40;99.90;;;;;;5014570;28;20414;-73
2022/05/24 13:43:41;;;;;;;0.30;0.30;;;17.40;99.90;;;;;;5015144;28;20050;-75